sensor_id;sensor_type;location;lat;lon;timestamp;pressure;altitude;pressure_sealevel;temperature;humidity
17649;BME280;8943;51.110;-4.158;2023-03-13T00:01:11;98938.84;;;17.23;61.21
17649;BME280;8943;51.110;-4.158;2023-03-13T00:03:40;98932.22;;;17.26;60.96
17649;BME280;8943;51.110;-4.158;2023-03-13T00:06:08;98920.59;;;17.19;60.95
17649;BME280;8943;51.110;-4.158;2023-03-13T00:08:36;98917.91;;;17.19;60.87
17649;BME280;8943;51.110;-4.158;2023-03-13T00:11:05;98915.59;;;17.16;61.28
17649;BME280;8943;51.110;-4.158;2023-03-13T00:13:34;98906.09;;;17.20;61.24
17649;BME280;8943;51.110;-4.158;2023-03-13T00:16:02;98917.47;;;17.15;61.53
17649;BME280;8943;51.110;-4.158;2023-03-13T00:18:31;98909.00;;;17.18;61.61
17649;BME280;8943;51.110;-4.158;2023-03-13T00:21:02;98917.25;;;17.17;62.09
17649;BME280;8943;51.110;-4.158;2023-03-13T00:23:32;98898.47;;;17.23;61.95
17649;BME280;8943;51.110;-4.158;2023-03-13T00:26:04;98918.81;;;17.33;61.98
17649;BME280;8943;51.110;-4.158;2023-03-13T00:28:33;98899.53;;;17.36;61.59
17649;BME280;8943;51.110;-4.158;2023-03-13T00:31:02;98880.69;;;17.36;61.50
17649;BME280;8943;51.110;-4.158;2023-03-13T00:33:31;98895.19;;;17.41;61.46
17649;BME280;8943;51.110;-4.158;2023-03-13T00:36:02;98895.03;;;17.43;61.26
17649;BME280;8943;51.110;-4.158;2023-03-13T00:38:31;98874.72;;;17.40;61.08
17649;BME280;8943;51.110;-4.158;2023-03-13T00:41:00;98857.91;;;17.32;61.39
17649;BME280;8943;51.110;-4.158;2023-03-13T00:43:29;98847.34;;;17.37;61.26
17649;BME280;8943;51.110;-4.158;2023-03-13T00:45:57;98854.81;;;17.35;61.08
17649;BME280;8943;51.110;-4.158;2023-03-13T00:48:26;98862.22;;;17.26;61.26
17649;BME280;8943;51.110;-4.158;2023-03-13T00:50:55;98870.13;;;17.28;61.08
17649;BME280;8943;51.110;-4.158;2023-03-13T00:53:24;98861.41;;;17.32;61.19
17649;BME280;8943;51.110;-4.158;2023-03-13T00:55:54;98844.44;;;17.32;60.92
17649;BME280;8943;51.110;-4.158;2023-03-13T00:58:23;98849.66;;;17.33;61.08
17649;BME280;8943;51.110;-4.158;2023-03-13T01:00:51;98823.34;;;17.35;61.00
17649;BME280;8943;51.110;-4.158;2023-03-13T01:03:20;98826.22;;;17.27;60.84
17649;BME280;8943;51.110;-4.158;2023-03-13T01:05:55;98842.81;;;17.37;60.62
17649;BME280;8943;51.110;-4.158;2023-03-13T01:08:25;98816.72;;;17.38;60.57
17649;BME280;8943;51.110;-4.158;2023-03-13T01:10:57;98802.44;;;17.37;60.33
17649;BME280;8943;51.110;-4.158;2023-03-13T01:13:26;98821.09;;;17.45;59.99
17649;BME280;8943;51.110;-4.158;2023-03-13T01:15:54;98808.22;;;17.41;60.17
17649;BME280;8943;51.110;-4.158;2023-03-13T01:18:22;98783.59;;;17.44;59.75
17649;BME280;8943;51.110;-4.158;2023-03-13T01:20:51;98803.88;;;17.40;59.70
17649;BME280;8943;51.110;-4.158;2023-03-13T01:23:19;98835.81;;;17.49;59.54
17649;BME280;8943;51.110;-4.158;2023-03-13T01:25:49;98801.00;;;17.48;59.32
17649;BME280;8943;51.110;-4.158;2023-03-13T01:28:17;98819.22;;;17.46;59.06
17649;BME280;8943;51.110;-4.158;2023-03-13T01:30:45;98843.22;;;17.41;59.31
17649;BME280;8943;51.110;-4.158;2023-03-13T01:33:13;98810.91;;;17.28;59.31
17649;BME280;8943;51.110;-4.158;2023-03-13T01:35:41;98815.88;;;17.24;59.58
17649;BME280;8943;51.110;-4.158;2023-03-13T01:38:10;98813.81;;;17.33;59.36
17649;BME280;8943;51.110;-4.158;2023-03-13T01:40:39;98806.34;;;17.28;59.03
17649;BME280;8943;51.110;-4.158;2023-03-13T01:43:20;98812.13;;;17.25;59.24
17649;BME280;8943;51.110;-4.158;2023-03-13T01:45:59;98741.94;;;17.27;59.00
17649;BME280;8943;51.110;-4.158;2023-03-13T01:48:35;98792.47;;;17.24;58.75
17649;BME280;8943;51.110;-4.158;2023-03-13T01:51:08;98761.22;;;17.23;58.74
17649;BME280;8943;51.110;-4.158;2023-03-13T01:53:40;98773.84;;;17.23;58.55
17649;BME280;8943;51.110;-4.158;2023-03-13T01:56:13;98767.00;;;17.27;58.58
17649;BME280;8943;51.110;-4.158;2023-03-13T01:58:46;98760.81;;;17.33;58.26
17649;BME280;8943;51.110;-4.158;2023-03-13T02:01:16;98780.69;;;17.39;57.82
17649;BME280;8943;51.110;-4.158;2023-03-13T02:03:46;98782.56;;;17.45;57.47
17649;BME280;8943;51.110;-4.158;2023-03-13T02:06:16;98751.09;;;17.59;57.11
17649;BME280;8943;51.110;-4.158;2023-03-13T02:08:49;98750.50;;;17.63;56.48
17649;BME280;8943;51.110;-4.158;2023-03-13T02:11:23;98809.53;;;17.58;56.40
17649;BME280;8943;51.110;-4.158;2023-03-13T02:13:55;98754.22;;;17.69;56.21
17649;BME280;8943;51.110;-4.158;2023-03-13T02:16:23;98727.28;;;17.69;56.26
17649;BME280;8943;51.110;-4.158;2023-03-13T02:18:51;98766.22;;;17.66;56.14
17649;BME280;8943;51.110;-4.158;2023-03-13T02:21:29;98758.56;;;17.70;55.99
17649;BME280;8943;51.110;-4.158;2023-03-13T02:24:08;98717.34;;;17.69;55.75
17649;BME280;8943;51.110;-4.158;2023-03-13T02:26:42;98707.41;;;17.70;55.61
17649;BME280;8943;51.110;-4.158;2023-03-13T02:29:10;98726.88;;;17.72;55.23
17649;BME280;8943;51.110;-4.158;2023-03-13T02:31:45;98745.91;;;17.70;55.20
17649;BME280;8943;51.110;-4.158;2023-03-13T02:34:16;98719.44;;;17.74;55.14
17649;BME280;8943;51.110;-4.158;2023-03-13T02:36:46;98708.22;;;17.64;54.97
17649;BME280;8943;51.110;-4.158;2023-03-13T02:39:17;98706.56;;;17.69;54.80
17649;BME280;8943;51.110;-4.158;2023-03-13T02:41:49;98753.81;;;17.72;54.75
17649;BME280;8943;51.110;-4.158;2023-03-13T02:44:18;98691.69;;;17.73;54.33
17649;BME280;8943;51.110;-4.158;2023-03-13T02:46:47;98688.13;;;17.66;54.45
17649;BME280;8943;51.110;-4.158;2023-03-13T02:49:26;98687.72;;;17.63;54.22
17649;BME280;8943;51.110;-4.158;2023-03-13T02:51:57;98671.38;;;17.58;54.11
17649;BME280;8943;51.110;-4.158;2023-03-13T02:54:29;98681.31;;;17.57;54.20
17649;BME280;8943;51.110;-4.158;2023-03-13T02:57:03;98690.22;;;17.58;53.80
17649;BME280;8943;51.110;-4.158;2023-03-13T02:59:31;98686.50;;;17.52;53.92
17649;BME280;8943;51.110;-4.158;2023-03-13T03:02:00;98665.56;;;17.54;53.77
17649;BME280;8943;51.110;-4.158;2023-03-13T03:04:29;98658.53;;;17.53;53.92
17649;BME280;8943;51.110;-4.158;2023-03-13T03:06:57;98692.69;;;17.46;54.48
17649;BME280;8943;51.110;-4.158;2023-03-13T03:09:26;98656.03;;;17.32;54.54
17649;BME280;8943;51.110;-4.158;2023-03-13T03:11:54;98680.44;;;17.17;54.62
17649;BME280;8943;51.110;-4.158;2023-03-13T03:14:23;98694.31;;;17.07;54.88
17649;BME280;8943;51.110;-4.158;2023-03-13T03:16:51;98623.75;;;17.05;55.38
17649;BME280;8943;51.110;-4.158;2023-03-13T03:19:19;98663.06;;;16.99;55.56
17649;BME280;8943;51.110;-4.158;2023-03-13T03:21:47;98656.03;;;17.05;55.35
17649;BME280;8943;51.110;-4.158;2023-03-13T03:24:15;98645.03;;;17.07;55.25
17649;BME280;8943;51.110;-4.158;2023-03-13T03:26:43;98636.97;;;17.07;55.12
17649;BME280;8943;51.110;-4.158;2023-03-13T03:29:11;98636.34;;;17.11;54.71
17649;BME280;8943;51.110;-4.158;2023-03-13T03:31:41;98635.31;;;17.12;54.52
17649;BME280;8943;51.110;-4.158;2023-03-13T03:34:09;98625.00;;;17.09;54.29
17649;BME280;8943;51.110;-4.158;2023-03-13T03:36:37;98644.44;;;17.05;54.24
17649;BME280;8943;51.110;-4.158;2023-03-13T03:39:05;98631.59;;;17.07;53.78
17649;BME280;8943;51.110;-4.158;2023-03-13T03:41:33;98621.25;;;17.10;53.79
17649;BME280;8943;51.110;-4.158;2023-03-13T03:44:01;98593.50;;;17.16;53.64
17649;BME280;8943;51.110;-4.158;2023-03-13T03:46:29;98639.25;;;17.16;53.40
17649;BME280;8943;51.110;-4.158;2023-03-13T03:48:58;98624.56;;;17.19;53.28
17649;BME280;8943;51.110;-4.158;2023-03-13T03:51:26;98633.06;;;17.16;53.07
17649;BME280;8943;51.110;-4.158;2023-03-13T03:53:54;98607.19;;;17.21;52.87
17649;BME280;8943;51.110;-4.158;2023-03-13T03:56:22;98618.75;;;17.22;52.91
17649;BME280;8943;51.110;-4.158;2023-03-13T03:58:51;98623.31;;;17.21;52.53
17649;BME280;8943;51.110;-4.158;2023-03-13T04:01:19;98586.06;;;17.12;52.14
17649;BME280;8943;51.110;-4.158;2023-03-13T04:03:47;98653.53;;;17.10;51.94
17649;BME280;8943;51.110;-4.158;2023-03-13T04:06:17;98629.53;;;17.09;51.82
17649;BME280;8943;51.110;-4.158;2023-03-13T04:08:45;98593.13;;;17.19;51.58
17649;BME280;8943;51.110;-4.158;2023-03-13T04:11:13;98611.09;;;17.12;51.69
17649;BME280;8943;51.110;-4.158;2023-03-13T04:13:41;98572.59;;;17.12;51.56
17649;BME280;8943;51.110;-4.158;2023-03-13T04:16:09;98575.31;;;17.05;52.01
17649;BME280;8943;51.110;-4.158;2023-03-13T04:18:37;98557.50;;;17.11;52.05
17649;BME280;8943;51.110;-4.158;2023-03-13T04:21:05;98579.88;;;17.05;52.33
17649;BME280;8943;51.110;-4.158;2023-03-13T04:23:35;98590.41;;;17.06;52.44
17649;BME280;8943;51.110;-4.158;2023-03-13T04:26:03;98579.88;;;17.05;52.23
17649;BME280;8943;51.110;-4.158;2023-03-13T04:28:31;98554.81;;;17.04;52.13
17649;BME280;8943;51.110;-4.158;2023-03-13T04:30:59;98563.50;;;17.13;52.12
17649;BME280;8943;51.110;-4.158;2023-03-13T04:33:27;98538.91;;;17.09;52.05
17649;BME280;8943;51.110;-4.158;2023-03-13T04:35:55;98527.50;;;17.07;52.15
17649;BME280;8943;51.110;-4.158;2023-03-13T04:38:23;98585.25;;;17.11;51.96
17649;BME280;8943;51.110;-4.158;2023-03-13T04:40:53;98534.13;;;17.11;51.80
17649;BME280;8943;51.110;-4.158;2023-03-13T04:43:21;98541.16;;;17.06;51.55
17649;BME280;8943;51.110;-4.158;2023-03-13T04:45:50;98478.25;;;17.00;51.04
17649;BME280;8943;51.110;-4.158;2023-03-13T04:48:20;98544.28;;;17.09;50.99
17649;BME280;8943;51.110;-4.158;2023-03-13T04:50:48;98532.03;;;17.20;50.90
17649;BME280;8943;51.110;-4.158;2023-03-13T04:53:16;98533.91;;;17.13;50.89
17649;BME280;8943;51.110;-4.158;2023-03-13T04:55:46;98538.06;;;17.15;50.51
17649;BME280;8943;51.110;-4.158;2023-03-13T04:58:16;98525.63;;;17.14;50.45
17649;BME280;8943;51.110;-4.158;2023-03-13T05:00:44;98551.50;;;17.15;50.48
17649;BME280;8943;51.110;-4.158;2023-03-13T05:03:12;98485.94;;;17.03;50.52
17649;BME280;8943;51.110;-4.158;2023-03-13T05:05:40;98510.94;;;17.10;50.26
17649;BME280;8943;51.110;-4.158;2023-03-13T05:08:08;98509.50;;;17.01;50.70
17649;BME280;8943;51.110;-4.158;2023-03-13T05:10:36;98532.88;;;17.07;50.25
17649;BME280;8943;51.110;-4.158;2023-03-13T05:13:04;98501.03;;;17.04;50.51
17649;BME280;8943;51.110;-4.158;2023-03-13T05:15:34;98501.22;;;16.96;50.92
17649;BME280;8943;51.110;-4.158;2023-03-13T05:18:03;98519.88;;;16.84;51.50
17649;BME280;8943;51.110;-4.158;2023-03-13T05:20:31;98518.19;;;16.83;51.80
17649;BME280;8943;51.110;-4.158;2023-03-13T05:23:00;98494.41;;;16.73;52.02
17649;BME280;8943;51.110;-4.158;2023-03-13T05:25:27;98502.03;;;16.63;52.73
17649;BME280;8943;51.110;-4.158;2023-03-13T05:27:56;98507.63;;;16.55;53.58
17649;BME280;8943;51.110;-4.158;2023-03-13T05:30:24;98506.97;;;16.40;53.95
17649;BME280;8943;51.110;-4.158;2023-03-13T05:32:53;98498.72;;;16.35;54.16
17649;BME280;8943;51.110;-4.158;2023-03-13T05:35:22;98484.63;;;16.33;54.13
17649;BME280;8943;51.110;-4.158;2023-03-13T05:37:49;98473.47;;;16.36;53.84
17649;BME280;8943;51.110;-4.158;2023-03-13T05:40:18;98479.47;;;16.38;53.67
17649;BME280;8943;51.110;-4.158;2023-03-13T05:42:46;98510.69;;;16.39;53.29
17649;BME280;8943;51.110;-4.158;2023-03-13T05:45:14;98434.41;;;16.40;53.06
17649;BME280;8943;51.110;-4.158;2023-03-13T05:47:42;98474.31;;;16.50;52.48
17649;BME280;8943;51.110;-4.158;2023-03-13T05:50:12;98460.25;;;16.61;52.19
17649;BME280;8943;51.110;-4.158;2023-03-13T05:52:40;98544.03;;;16.71;51.56
17649;BME280;8943;51.110;-4.158;2023-03-13T05:55:08;98454.47;;;16.70;51.34
17649;BME280;8943;51.110;-4.158;2023-03-13T05:57:36;98450.75;;;16.78;51.14
17649;BME280;8943;51.110;-4.158;2023-03-13T06:00:06;98481.78;;;16.81;51.15
17649;BME280;8943;51.110;-4.158;2023-03-13T06:02:34;98470.63;;;16.77;51.42
17649;BME280;8943;51.110;-4.158;2023-03-13T06:05:02;98431.31;;;16.69;52.09
17649;BME280;8943;51.110;-4.158;2023-03-13T06:07:31;98458.19;;;16.63;52.39
17649;BME280;8943;51.110;-4.158;2023-03-13T06:09:59;98435.44;;;16.52;52.77
17649;BME280;8943;51.110;-4.158;2023-03-13T06:12:28;98423.47;;;16.35;53.32
17649;BME280;8943;51.110;-4.158;2023-03-13T06:14:56;98426.34;;;16.33;53.72
17649;BME280;8943;51.110;-4.158;2023-03-13T06:17:24;98413.94;;;16.32;53.47
17649;BME280;8943;51.110;-4.158;2023-03-13T06:19:52;98391.63;;;16.32;53.40
17649;BME280;8943;51.110;-4.158;2023-03-13T06:22:20;98385.84;;;16.35;53.02
17649;BME280;8943;51.110;-4.158;2023-03-13T06:24:49;98399.50;;;16.40;52.48
17649;BME280;8943;51.110;-4.158;2023-03-13T06:27:17;98411.47;;;16.51;52.26
17649;BME280;8943;51.110;-4.158;2023-03-13T06:29:45;98406.06;;;16.57;52.05
17649;BME280;8943;51.110;-4.158;2023-03-13T06:32:13;98405.03;;;16.58;51.25
17649;BME280;8943;51.110;-4.158;2023-03-13T06:34:41;98453.25;;;16.60;51.39
17649;BME280;8943;51.110;-4.158;2023-03-13T06:37:09;98439.16;;;16.71;51.01
17649;BME280;8943;51.110;-4.158;2023-03-13T06:39:38;98474.56;;;16.75;50.85
17649;BME280;8943;51.110;-4.158;2023-03-13T06:42:07;98384.38;;;16.72;51.20
17649;BME280;8943;51.110;-4.158;2023-03-13T06:44:35;98404.84;;;16.73;50.97
17649;BME280;8943;51.110;-4.158;2023-03-13T06:47:04;98454.06;;;16.60;51.56
17649;BME280;8943;51.110;-4.158;2023-03-13T06:49:32;98441.22;;;16.62;51.71
17649;BME280;8943;51.110;-4.158;2023-03-13T06:52:00;98437.28;;;16.58;52.18
17649;BME280;8943;51.110;-4.158;2023-03-13T06:54:28;98463.38;;;16.51;52.43
17649;BME280;8943;51.110;-4.158;2023-03-13T06:56:56;98410.22;;;16.40;52.60
17649;BME280;8943;51.110;-4.158;2023-03-13T06:59:25;98441.03;;;16.37;52.87
17649;BME280;8943;51.110;-4.158;2023-03-13T07:01:53;98413.13;;;16.32;52.96
17649;BME280;8943;51.110;-4.158;2023-03-13T07:04:21;98453.19;;;16.20;53.11
17649;BME280;8943;51.110;-4.158;2023-03-13T07:06:50;98410.00;;;16.28;52.62
17649;BME280;8943;51.110;-4.158;2023-03-13T07:09:18;98474.28;;;16.30;52.26
17649;BME280;8943;51.110;-4.158;2023-03-13T07:11:46;98441.63;;;16.33;52.06
17649;BME280;8943;51.110;-4.158;2023-03-13T07:14:14;98432.75;;;16.45;51.68
17649;BME280;8943;51.110;-4.158;2023-03-13T07:16:45;98442.88;;;16.43;51.73
17649;BME280;8943;51.110;-4.158;2023-03-13T07:19:13;98440.19;;;16.57;51.66
17649;BME280;8943;51.110;-4.158;2023-03-13T07:21:41;98422.19;;;16.64;51.70
17649;BME280;8943;51.110;-4.158;2023-03-13T07:24:10;98418.50;;;16.65;51.47
17649;BME280;8943;51.110;-4.158;2023-03-13T07:26:38;98466.06;;;16.64;51.48
17649;BME280;8943;51.110;-4.158;2023-03-13T07:29:19;98434.00;;;16.56;51.51
17649;BME280;8943;51.110;-4.158;2023-03-13T07:31:49;98460.47;;;16.59;51.34
17649;BME280;8943;51.110;-4.158;2023-03-13T07:34:17;98501.63;;;16.60;51.36
17649;BME280;8943;51.110;-4.158;2023-03-13T07:36:45;98486.31;;;16.60;51.26
17649;BME280;8943;51.110;-4.158;2023-03-13T07:39:13;98395.13;;;16.65;51.18
17649;BME280;8943;51.110;-4.158;2023-03-13T07:41:41;98420.53;;;16.63;50.94
17649;BME280;8943;51.110;-4.158;2023-03-13T07:44:09;98436.47;;;16.58;51.38
17649;BME280;8943;51.110;-4.158;2023-03-13T07:46:37;98449.72;;;16.66;51.33
17649;BME280;8943;51.110;-4.158;2023-03-13T07:49:07;98440.81;;;16.65;51.31
17649;BME280;8943;51.110;-4.158;2023-03-13T07:51:35;98485.09;;;16.69;51.13
17649;BME280;8943;51.110;-4.158;2023-03-13T07:54:09;98460.66;;;16.71;51.00
17649;BME280;8943;51.110;-4.158;2023-03-13T07:56:38;98471.25;;;16.72;50.87
17649;BME280;8943;51.110;-4.158;2023-03-13T07:59:06;98460.09;;;16.76;50.70
17649;BME280;8943;51.110;-4.158;2023-03-13T08:01:35;98449.72;;;16.86;50.62
17649;BME280;8943;51.110;-4.158;2023-03-13T08:04:03;98470.63;;;16.84;50.83
17649;BME280;8943;51.110;-4.158;2023-03-13T08:06:33;98478.91;;;16.89;50.64
17649;BME280;8943;51.110;-4.158;2023-03-13T08:09:02;98483.25;;;16.90;50.81
17649;BME280;8943;51.110;-4.158;2023-03-13T08:11:31;98516.75;;;16.94;50.61
17649;BME280;8943;51.110;-4.158;2023-03-13T08:13:59;98496.69;;;16.96;50.07
17649;BME280;8943;51.110;-4.158;2023-03-13T08:16:28;98474.13;;;17.04;49.95
17649;BME280;8943;51.110;-4.158;2023-03-13T08:18:58;98491.06;;;16.98;49.97
17649;BME280;8943;51.110;-4.158;2023-03-13T08:21:27;98487.56;;;17.04;50.09
17649;BME280;8943;51.110;-4.158;2023-03-13T08:23:58;98493.78;;;17.05;49.60
17649;BME280;8943;51.110;-4.158;2023-03-13T08:26:28;98562.50;;;16.94;49.67
17649;BME280;8943;51.110;-4.158;2023-03-13T08:28:57;98497.50;;;17.04;49.88
17649;BME280;8943;51.110;-4.158;2023-03-13T08:31:27;98521.72;;;16.90;50.12
17649;BME280;8943;51.110;-4.158;2023-03-13T08:33:56;98481.16;;;16.98;50.08
17649;BME280;8943;51.110;-4.158;2023-03-13T08:36:25;98506.41;;;16.91;49.94
17649;BME280;8943;51.110;-4.158;2023-03-13T08:38:56;98484.06;;;16.90;50.20
17649;BME280;8943;51.110;-4.158;2023-03-13T08:41:28;98468.56;;;16.86;50.31
17649;BME280;8943;51.110;-4.158;2023-03-13T08:43:56;98518.63;;;16.80;50.14
17649;BME280;8943;51.110;-4.158;2023-03-13T08:46:27;98499.78;;;16.87;50.14
17649;BME280;8943;51.110;-4.158;2023-03-13T08:48:56;98478.69;;;16.90;49.71
17649;BME280;8943;51.110;-4.158;2023-03-13T08:51:26;98471.03;;;16.94;50.21
17649;BME280;8943;51.110;-4.158;2023-03-13T08:53:54;98483.66;;;16.87;49.99
17649;BME280;8943;51.110;-4.158;2023-03-13T08:56:26;98489.22;;;16.92;50.09
17649;BME280;8943;51.110;-4.158;2023-03-13T08:58:57;98488.41;;;16.91;50.04
17649;BME280;8943;51.110;-4.158;2023-03-13T09:01:28;98498.97;;;16.99;49.81
17649;BME280;8943;51.110;-4.158;2023-03-13T09:03:57;98600.16;;;16.94;49.74
17649;BME280;8943;51.110;-4.158;2023-03-13T09:06:29;98520.03;;;17.03;49.79
17649;BME280;8943;51.110;-4.158;2023-03-13T09:08:57;98489.00;;;17.13;49.51
17649;BME280;8943;51.110;-4.158;2023-03-13T09:11:27;98511.34;;;17.07;49.44
17649;BME280;8943;51.110;-4.158;2023-03-13T09:13:55;98499.13;;;17.11;49.55
17649;BME280;8943;51.110;-4.158;2023-03-13T09:16:26;98534.53;;;17.21;49.30
17649;BME280;8943;51.110;-4.158;2023-03-13T09:18:55;98529.78;;;17.23;49.38
17649;BME280;8943;51.110;-4.158;2023-03-13T09:21:25;98505.53;;;17.17;49.14
17649;BME280;8943;51.110;-4.158;2023-03-13T09:23:53;98529.34;;;17.27;48.91
17649;BME280;8943;51.110;-4.158;2023-03-13T09:26:21;98486.28;;;17.33;48.92
17649;BME280;8943;51.110;-4.158;2023-03-13T09:28:52;98516.91;;;17.39;48.59
17649;BME280;8943;51.110;-4.158;2023-03-13T09:31:22;98503.84;;;17.36;48.40
17649;BME280;8943;51.110;-4.158;2023-03-13T09:33:50;98523.94;;;17.40;47.94
17649;BME280;8943;51.110;-4.158;2023-03-13T09:36:19;98509.84;;;17.44;47.72
17649;BME280;8943;51.110;-4.158;2023-03-13T09:38:49;98518.09;;;17.56;47.92
17649;BME280;8943;51.110;-4.158;2023-03-13T09:41:23;98528.47;;;17.53;47.67
17649;BME280;8943;51.110;-4.158;2023-03-13T09:43:59;98496.97;;;17.60;47.87
17649;BME280;8943;51.110;-4.158;2023-03-13T09:46:35;98523.03;;;17.72;48.05
17649;BME280;8943;51.110;-4.158;2023-03-13T09:49:11;98537.34;;;17.73;47.84
17649;BME280;8943;51.110;-4.158;2023-03-13T09:51:46;98549.53;;;17.82;47.52
17649;BME280;8943;51.110;-4.158;2023-03-13T09:54:22;98543.75;;;17.79;47.75
17649;BME280;8943;51.110;-4.158;2023-03-13T09:56:55;98528.41;;;17.72;47.54
17649;BME280;8943;51.110;-4.158;2023-03-13T09:59:39;98532.16;;;17.71;47.56
17649;BME280;8943;51.110;-4.158;2023-03-13T10:02:19;98584.97;;;17.66;47.51
17649;BME280;8943;51.110;-4.158;2023-03-13T10:04:51;98547.06;;;17.67;47.75
17649;BME280;8943;51.110;-4.158;2023-03-13T10:07:20;98540.84;;;17.60;47.74
17649;BME280;8943;51.110;-4.158;2023-03-13T10:09:48;98555.19;;;17.54;47.15
17649;BME280;8943;51.110;-4.158;2023-03-13T10:12:18;98531.53;;;17.56;47.35
17649;BME280;8943;51.110;-4.158;2023-03-13T10:14:56;98514.38;;;17.57;47.34
17649;BME280;8943;51.110;-4.158;2023-03-13T10:17:31;98552.25;;;17.62;47.73
17649;BME280;8943;51.110;-4.158;2023-03-13T10:20:02;98541.09;;;17.59;47.49
17649;BME280;8943;51.110;-4.158;2023-03-13T10:22:37;98546.09;;;17.48;47.60
17649;BME280;8943;51.110;-4.158;2023-03-13T10:25:08;98569.03;;;17.51;47.49
17649;BME280;8943;51.110;-4.158;2023-03-13T10:27:43;98529.69;;;17.50;47.47
17649;BME280;8943;51.110;-4.158;2023-03-13T10:30:21;98470.06;;;17.46;46.99
17649;BME280;8943;51.110;-4.158;2023-03-13T10:32:53;98515.03;;;17.39;47.10
17649;BME280;8943;51.110;-4.158;2023-03-13T10:35:23;98518.97;;;17.37;47.43
17649;BME280;8943;51.110;-4.158;2023-03-13T10:38:01;98525.16;;;17.44;47.67
17649;BME280;8943;51.110;-4.158;2023-03-13T10:40:30;98505.28;;;17.45;47.33
17649;BME280;8943;51.110;-4.158;2023-03-13T10:43:03;98556.59;;;17.57;47.27
17649;BME280;8943;51.110;-4.158;2023-03-13T10:45:36;98533.41;;;17.56;47.18
17649;BME280;8943;51.110;-4.158;2023-03-13T10:48:11;98528.44;;;17.59;47.38
17649;BME280;8943;51.110;-4.158;2023-03-13T10:50:41;98518.06;;;17.69;46.97
17649;BME280;8943;51.110;-4.158;2023-03-13T10:53:24;98545.38;;;17.66;47.23
17649;BME280;8943;51.110;-4.158;2023-03-13T10:55:53;98531.91;;;17.80;47.16
17649;BME280;8943;51.110;-4.158;2023-03-13T10:58:27;98489.00;;;17.85;46.70
17649;BME280;8943;51.110;-4.158;2023-03-13T11:01:15;98519.19;;;18.00;46.36
17649;BME280;8943;51.110;-4.158;2023-03-13T11:03:44;98524.56;;;18.07;46.35
17649;BME280;8943;51.110;-4.158;2023-03-13T11:06:26;98511.88;;;18.14;46.35
17649;BME280;8943;51.110;-4.158;2023-03-13T11:09:09;98512.53;;;18.09;46.05
17649;BME280;8943;51.110;-4.158;2023-03-13T11:11:46;98516.25;;;18.08;46.42
17649;BME280;8943;51.110;-4.158;2023-03-13T11:14:16;98497.00;;;18.05;46.03
17649;BME280;8943;51.110;-4.158;2023-03-13T11:16:52;98529.50;;;18.10;45.64
17649;BME280;8943;51.110;-4.158;2023-03-13T11:19:48;98521.44;;;18.10;46.02
17649;BME280;8943;51.110;-4.158;2023-03-13T11:22:43;98541.97;;;18.04;45.91
17649;BME280;8943;51.110;-4.158;2023-03-13T11:25:19;98538.66;;;18.09;46.28
17649;BME280;8943;51.110;-4.158;2023-03-13T11:27:53;98543.81;;;18.10;46.28
17649;BME280;8943;51.110;-4.158;2023-03-13T11:30:44;98532.66;;;18.07;46.31
17649;BME280;8943;51.110;-4.158;2023-03-13T11:33:27;98528.09;;;18.07;46.56
17649;BME280;8943;51.110;-4.158;2023-03-13T11:36:00;98541.34;;;18.09;46.78
17649;BME280;8943;51.110;-4.158;2023-03-13T11:38:35;98528.50;;;18.11;47.10
17649;BME280;8943;51.110;-4.158;2023-03-13T11:41:16;98551.84;;;18.23;46.62
17649;BME280;8943;51.110;-4.158;2023-03-13T11:43:57;98521.06;;;18.38;46.15
17649;BME280;8943;51.110;-4.158;2023-03-13T11:46:41;98502.81;;;18.40;45.90
17649;BME280;8943;51.110;-4.158;2023-03-13T11:49:30;98507.41;;;18.33;46.09
17649;BME280;8943;51.110;-4.158;2023-03-13T11:52:11;98487.78;;;18.25;45.99
17649;BME280;8943;51.110;-4.158;2023-03-13T11:54:53;98490.91;;;18.22;45.26
17649;BME280;8943;51.110;-4.158;2023-03-13T11:57:27;98465.25;;;18.13;45.47
17649;BME280;8943;51.110;-4.158;2023-03-13T12:00:12;98477.66;;;18.14;45.07
17649;BME280;8943;51.110;-4.158;2023-03-13T12:02:46;98526.84;;;18.03;45.55
17649;BME280;8943;51.110;-4.158;2023-03-13T12:05:19;98496.81;;;17.99;46.06
17649;BME280;8943;51.110;-4.158;2023-03-13T12:07:52;98501.69;;;17.78;47.03
17649;BME280;8943;51.110;-4.158;2023-03-13T12:10:25;98515.84;;;17.46;48.44
17649;BME280;8943;51.110;-4.158;2023-03-13T12:13:00;98532.25;;;17.12;50.14
17649;BME280;8943;51.110;-4.158;2023-03-13T12:15:31;98506.38;;;16.71;52.04
17649;BME280;8943;51.110;-4.158;2023-03-13T12:18:08;98518.94;;;16.44;53.39
17649;BME280;8943;51.110;-4.158;2023-03-13T12:20:43;98493.50;;;16.27;54.51
17649;BME280;8943;51.110;-4.158;2023-03-13T12:23:20;98501.16;;;16.23;55.42
17649;BME280;8943;51.110;-4.158;2023-03-13T12:25:52;98526.38;;;16.29;55.83
17649;BME280;8943;51.110;-4.158;2023-03-13T12:28:31;98463.56;;;16.36;55.55
17649;BME280;8943;51.110;-4.158;2023-03-13T12:31:10;98468.53;;;16.46;55.16
17649;BME280;8943;51.110;-4.158;2023-03-13T12:33:43;98482.59;;;16.61;54.98
17649;BME280;8943;51.110;-4.158;2023-03-13T12:36:18;98461.94;;;16.82;54.78
17649;BME280;8943;51.110;-4.158;2023-03-13T12:38:52;98470.59;;;17.04;54.49
17649;BME280;8943;51.110;-4.158;2023-03-13T12:41:27;98458.53;;;17.26;53.73
17649;BME280;8943;51.110;-4.158;2023-03-13T12:43:57;98435.72;;;17.42;52.75
17649;BME280;8943;51.110;-4.158;2023-03-13T12:46:38;98439.81;;;17.58;52.60
17649;BME280;8943;51.110;-4.158;2023-03-13T12:49:32;98431.03;;;17.75;51.89
17649;BME280;8943;51.110;-4.158;2023-03-13T12:55:20;98423.41;;;18.04;49.77
17649;BME280;8943;51.110;-4.158;2023-03-13T12:58:05;98414.91;;;18.07;49.55
17649;BME280;8943;51.110;-4.158;2023-03-13T13:00:38;98416.50;;;18.15;49.18
17649;BME280;8943;51.110;-4.158;2023-03-13T13:03:18;98422.44;;;18.30;49.46
17649;BME280;8943;51.110;-4.158;2023-03-13T13:06:03;98418.13;;;18.47;49.05
17649;BME280;8943;51.110;-4.158;2023-03-13T13:08:40;98398.91;;;18.62;48.15
17649;BME280;8943;51.110;-4.158;2023-03-13T13:17:42;98411.69;;;18.73;46.54
17649;BME280;8943;51.110;-4.158;2023-03-13T13:20:35;98388.34;;;18.86;46.24
17649;BME280;8943;51.110;-4.158;2023-03-13T13:23:20;98404.94;;;18.89;45.96
17649;BME280;8943;51.110;-4.158;2023-03-13T13:25:51;98382.06;;;18.92;45.83
17649;BME280;8943;51.110;-4.158;2023-03-13T13:28:28;98353.00;;;18.94;45.69
17649;BME280;8943;51.110;-4.158;2023-03-13T13:30:58;98350.88;;;18.96;45.45